createdAt,value
2018-03-24T00:07:37.327Z,24.80
2018-03-24T00:17:51.857Z,23.67
2018-03-24T00:28:04.835Z,20.83
2018-03-24T00:38:18.405Z,21.50
2018-03-24T00:48:30.958Z,22.73
2018-03-24T00:58:43.653Z,20.20
2018-03-24T01:08:55.138Z,19.07
2018-03-24T01:19:10.337Z,19.90
2018-03-24T01:29:22.209Z,21.00
2018-03-24T01:39:33.269Z,21.63
2018-03-24T01:49:47.689Z,20.47
2018-03-24T01:59:58.131Z,22.03
2018-03-24T02:10:12.266Z,22.07
2018-03-24T02:20:23.945Z,24.97
2018-03-24T02:30:35.067Z,27.57
2018-03-24T02:40:58.235Z,29.87
2018-03-24T02:51:18.750Z,32.77
2018-03-24T03:01:55.294Z,30.70
2018-03-24T03:12:16.322Z,26.50
2018-03-24T03:22:27.799Z,25.27
2018-03-24T03:32:38.881Z,24.27
2018-03-24T03:42:49.469Z,24.23
2018-03-24T03:53:08.152Z,23.87
2018-03-24T04:03:21.335Z,22.53
2018-03-24T04:13:33.844Z,21.93
2018-03-24T04:23:45.977Z,24.33
2018-03-24T04:34:10.102Z,26.03
2018-03-24T04:44:20.378Z,24.30
2018-03-24T04:54:35.772Z,25.00
2018-03-24T05:04:50.170Z,28.03
2018-03-24T05:15:11.330Z,32.77
2018-03-24T05:25:26.578Z,35.97
2018-03-24T05:35:35.509Z,36.83
2018-03-24T05:45:47.953Z,34.33
2018-03-24T05:56:02.843Z,51.43
2018-03-24T06:06:18.957Z,51.73
2018-03-24T06:16:41.135Z,46.40
2018-03-24T06:26:55.065Z,44.97
2018-03-24T06:37:13.818Z,43.43
2018-03-24T06:47:25.551Z,40.93
2018-03-24T06:57:42.200Z,40.13
2018-03-24T07:07:53.016Z,36.73
2018-03-24T07:18:09.594Z,38.67
2018-03-24T07:28:23.182Z,37.00
2018-03-24T07:38:44.257Z,34.70
2018-03-24T07:48:54.561Z,37.90
2018-03-24T07:59:05.306Z,40.30
2018-03-24T08:09:14.901Z,40.33
2018-03-24T08:19:25.056Z,45.80
2018-03-24T08:29:39.873Z,47.97
2018-03-24T08:39:54.018Z,47.50
2018-03-24T08:50:04.431Z,48.77
2018-03-24T09:00:19.470Z,53.63
2018-03-24T09:10:30.999Z,51.03
2018-03-24T09:20:41.849Z,53.70
2018-03-24T09:30:53.851Z,51.60
2018-03-24T09:41:08.342Z,45.37
2018-03-24T09:51:22.277Z,45.30
2018-03-24T10:01:46.034Z,43.77
2018-03-24T10:11:56.499Z,43.27
2018-03-24T10:22:49.302Z,43.70
2018-03-24T10:32:58.980Z,42.17
2018-03-24T10:43:12.806Z,44.27
2018-03-24T10:53:26.127Z,41.10
2018-03-24T11:03:45.114Z,44.00
2018-03-24T11:13:56.426Z,46.23
2018-03-24T11:24:09.344Z,45.70
2018-03-24T11:34:26.699Z,46.83
2018-03-24T11:44:40.550Z,44.97
2018-03-24T11:54:56.123Z,46.67
2018-03-24T12:05:14.066Z,47.20
2018-03-24T12:15:26.981Z,50.57
2018-03-24T12:25:43.226Z,49.43
2018-03-24T12:35:55.180Z,46.30
2018-03-24T12:46:06.540Z,45.60
2018-03-24T12:56:26.611Z,51.93
2018-03-24T13:06:41.272Z,53.00
2018-03-24T13:16:54.453Z,49.70
2018-03-24T13:27:16.127Z,48.77
2018-03-24T13:37:28.386Z,45.60
2018-03-24T13:47:37.804Z,46.93
2018-03-24T13:57:52.283Z,46.03
2018-03-24T14:08:11.203Z,47.10
2018-03-24T14:18:20.712Z,47.80
2018-03-24T14:28:36.285Z,48.73
2018-03-24T14:38:51.472Z,47.50
2018-03-24T14:49:02.242Z,48.13
2018-03-24T14:59:15.350Z,50.30
2018-03-24T15:09:28.196Z,47.27
2018-03-24T15:19:38.241Z,45.93
2018-03-24T15:30:06.771Z,45.90
2018-03-24T15:40:22.160Z,52.37
2018-03-24T15:50:32.551Z,43.10
2018-03-24T16:00:46.953Z,42.10
2018-03-24T16:10:59.585Z,44.27
2018-03-24T16:21:10.492Z,40.93
2018-03-24T16:31:25.014Z,39.23
2018-03-24T16:41:38.965Z,41.07
2018-03-24T16:51:50.785Z,39.23
2018-03-24T17:02:10.012Z,41.70
2018-03-24T17:12:22.351Z,41.37
2018-03-24T17:22:34.153Z,43.50
2018-03-24T17:32:44.197Z,41.87
2018-03-24T17:42:54.674Z,40.33
2018-03-24T17:53:05.461Z,40.43
2018-03-24T18:03:21.301Z,41.47
2018-03-24T18:13:29.904Z,40.40
2018-03-24T18:23:41.997Z,40.20
2018-03-24T18:33:52.824Z,41.33
2018-03-24T18:44:02.639Z,41.17
2018-03-24T18:54:17.765Z,39.07
2018-03-24T19:04:27.549Z,36.43
2018-03-24T19:14:43.865Z,35.47
2018-03-24T19:24:57.031Z,35.97
2018-03-24T19:35:08.742Z,36.57
2018-03-24T19:45:19.287Z,39.70
2018-03-24T19:55:35.759Z,38.70
2018-03-24T20:05:44.485Z,38.67
2018-03-24T20:16:01.230Z,35.90
2018-03-24T20:26:10.964Z,35.23
2018-03-24T20:36:20.891Z,35.73
2018-03-24T20:46:39.448Z,34.90
2018-03-24T20:56:48.126Z,34.53
2018-03-24T21:06:58.713Z,34.60
2018-03-24T21:17:09.034Z,35.43
2018-03-24T21:27:17.817Z,36.10
2018-03-24T21:37:28.772Z,34.83
2018-03-24T21:47:39.481Z,36.60
2018-03-24T21:57:54.227Z,35.70
2018-03-24T22:08:07.940Z,35.47
2018-03-24T22:18:16.298Z,36.67
2018-03-24T22:28:27.895Z,35.27
2018-03-24T22:38:40.104Z,35.30
2018-03-24T22:48:49.278Z,34.57
2018-03-24T22:59:04.812Z,37.60
2018-03-24T23:09:17.511Z,37.20
2018-03-24T23:19:27.131Z,37.20
2018-03-24T23:29:39.263Z,40.60
2018-03-24T23:39:50.039Z,38.20
2018-03-24T23:50:00.304Z,40.80
